This is the latest recevied weather packets stored in our database for station/object EMGATE. If no packets are shown the sender has not sent any weather packets the latest 10 day(s).
| Time | Temp. | Humidity | Pressure | Rain* | Wind** | Luminosity | Snow |
|---|---|---|---|---|---|---|---|
| 1777759456 | 8.33° C | 57% | 1011.2 hPa | 0 mm | - | - | - |
| 1777758556 | 8.89° C | 56% | 1010.8 hPa | 0 mm | - | - | - |
| 1777757656 | 9.44° C | 53% | 1010.7 hPa | 0 mm | - | - | - |
| 1777756756 | 9.44° C | 55% | 1010.7 hPa | 0 mm | - | - | - |
| 1777755856 | 8.89° C | 59% | 1010.6 hPa | 0 mm | - | - | - |
| 1777754956 | 9.44° C | 55% | 1010.6 hPa | 0 mm | - | - | - |
| 1777754056 | 10° C | 53% | 1010.8 hPa | 0 mm | - | - | - |
| 1777753156 | 10° C | 54% | 1010.9 hPa | 0 mm | - | - | - |
| 1777752256 | 10° C | 54% | 1010.9 hPa | 0 mm | - | - | - |
| 1777751356 | 10° C | 53% | 1011 hPa | 0 mm | - | - | - |
| 1777750456 | 10° C | 53% | 1011.2 hPa | 0 mm | - | - | - |
| 1777749556 | 9.44° C | 58% | 1011.3 hPa | 0 mm | - | - | - |
| 1777748656 | 8.89° C | 59% | 1011.3 hPa | 0 mm | - | - | - |
| 1777747756 | 8.89° C | 58% | 1011.4 hPa | 0 mm | - | - | - |
| 1777746856 | 8.89° C | 61% | 1011.5 hPa | 0 mm | - | - | - |
| 1777745956 | 8.89° C | 60% | 1011.5 hPa | 0 mm | - | - | - |
| 1777745056 | 8.89° C | 60% | 1011.5 hPa | 0 mm | - | - | - |
| 1777744156 | 8.89° C | 59% | 1011.5 hPa | 0 mm | - | - | - |
| 1777743257 | 8.33° C | 59% | 1011.6 hPa | 0 mm | - | - | - |
| 1777742357 | 8.33° C | 57% | 1011.6 hPa | 0 mm | - | - | - |
| 1777741457 | 8.89° C | 57% | 1011.7 hPa | 0 mm | - | - | - |
| 1777740557 | 8.89° C | 57% | 1011.8 hPa | 0 mm | - | - | - |
| 1777739656 | 8.89° C | 57% | 1012 hPa | 0 mm | - | - | - |
| 1777738757 | 7.78° C | 59% | 1012.1 hPa | 0 mm | - | - | - |
| 1777737857 | 7.78° C | 57% | 1012.3 hPa | 0 mm | - | - | - |
* Rain latest hour (hover to see other rain measurements)
** Current wind speed in m/s (hover to see current wind gust speed)